New Market, Minnesota
Current Conditions -  °F | °C
As of 1:08 PM on Saturday 25 Oct 2014 (Local Time) from KLVN Reporting Station
Clear Clear  
Wind Chill: 59°   Ceiling: Unl
Heat Index: 59°   Visibility: 10mi
Dew Point: 30°   Wind: 14mph
Humidity: 34%   Direction: 290°WNW
Pressure: 30.05"   Gusts: 23mph
Location:  44.57°N, 93.35°W
Report Text: KLVN 251808Z AUTO 29012G20KT 10SM CLR 15/M01 A3005 RMK AO2
Loading
Personal Weather Stations






























Interactive Weather Map
Tropical Storm Tracking
New forecast layout! Learn more

10-Day Weather Forecast

Advertisements
Track Severe Weather on mobile